Date,TemperatureHighF,TemperatureAvgF,TemperatureLowF,DewpointHighF,DewpointAvgF,DewpointLowF,HumidityHigh,HumidityAvg,HumidityLow,PressureMaxIn,PressureMinIn,WindSpeedMaxMPH,WindSpeedAvgMPH,GustSpeedMaxMPH,PrecipitationSumIn
2013-11-1,60,46,37,43,38,33,88,74,40,30.00,29.60,22,7,37,0.02
2013-11-2,58,45,35,37,33,30,86,66,35,30.20,30.00,13,4,20,0.00
2013-11-3,58,49,39,39,35,31,75,58,44,30.07,29.71,32,14,41,0.00
2013-11-4,56,49,33,43,38,29,89,67,50,30.12,29.75,17,5,22,0.00
2013-11-5,45,39,34,42,37,31,95,90,74,30.13,29.81,22,7,29,0.92
2013-11-6,42,36,30,35,31,28,93,85,68,30.30,30.07,18,4,24,0.00
2013-11-7,49,37,27,32,26,21,92,68,34,30.44,30.29,14,3,18,0.00
2013-11-8,62,49,32,39,33,25,74,56,36,30.29,29.72,27,9,33,0.00
2013-11-9,60,50,37,36,34,31,80,56,39,30.34,29.91,13,5,19,0.00
2013-11-10,53,42,30,36,31,27,92,66,39,30.41,30.16,13,3,16,0.00
2013-11-11,44,28,18,42,19,12,93,69,55,30.81,30.10,24,12,28,0.00
2013-11-12,34,21,10,14,10,6,85,65,33,30.95,30.62,11,3,13,0.00
2013-11-13,54,40,23,32,24,13,69,54,39,30.62,30.01,22,10,27,0.00
2013-11-14,53,41,32,36,29,24,86,63,48,30.01,29.89,10,3,14,0.00
2013-11-15,56,41,25,41,33,22,93,75,48,29.91,29.58,17,5,21,0.00
2013-11-16,64,52,40,52,40,30,92,67,36,29.58,29.30,24,7,30,0.00
2013-11-17,57,46,34,44,36,30,87,66,53,30.07,29.28,20,6,23,0.00
2013-11-18,57,40,26,33,26,22,87,61,26,30.26,30.07,17,4,20,0.00
2013-11-19,62,50,32,36,29,24,76,46,30,30.18,29.85,24,12,34,0.00
2013-11-20,59,48,37,39,34,28,86,60,45,29.92,29.70,20,8,23,0.00
2013-11-21,37,28,20,33,22,16,91,81,70,30.63,29.92,27,12,31,0.00
2013-11-22,29,20,12,16,11,7,83,68,48,30.78,30.63,14,4,20,0.00
2013-11-23,22,17,10,16,7,3,82,65,46,30.96,30.70,15,5,18,0.00
2013-11-24,32,21,9,16,10,3,81,64,46,30.83,30.27,18,7,20,0.00
2013-11-25,44,33,24,31,22,12,80,66,51,30.28,30.15,15,5,19,0.00
2013-11-26,31,25,14,24,15,7,84,66,42,30.49,30.24,25,7,30,0.00
2013-11-27,34,22,9,19,12,4,85,66,44,30.48,30.09,21,5,21,0.00
2013-11-28,34,26,15,22,18,10,83,71,51,30.53,30.12,17,5,21,0.00
2013-11-29,46,30,13,29,21,9,87,71,49,30.53,30.16,16,4,18,0.00
2013-11-30,58,38,24,34,27,19,86,66,36,30.17,30.07,6,0,8,0.00